sensor_id;sensor_type;location;lat;lon;timestamp;pressure;altitude;pressure_sealevel;temperature;humidity
21365;BME280;10841;42.832;23.196;2022-07-04T00:02:23;95590.16;;;22.21;61.02
21365;BME280;10841;42.832;23.196;2022-07-04T00:04:49;95584.53;;;22.18;60.88
21365;BME280;10841;42.832;23.196;2022-07-04T00:07:14;95572.00;;;22.13;60.20
21365;BME280;10841;42.832;23.196;2022-07-04T00:09:39;95586.13;;;22.19;60.24
21365;BME280;10841;42.832;23.196;2022-07-04T00:12:05;95583.91;;;22.22;59.99
21365;BME280;10841;42.832;23.196;2022-07-04T00:14:31;95592.16;;;22.26;59.97
21365;BME280;10841;42.832;23.196;2022-07-04T00:16:56;95582.31;;;22.28;59.64
21365;BME280;10841;42.832;23.196;2022-07-04T00:19:22;95586.94;;;22.32;60.00
21365;BME280;10841;42.832;23.196;2022-07-04T00:21:47;95574.22;;;22.29;59.65
21365;BME280;10841;42.832;23.196;2022-07-04T00:24:12;95587.38;;;22.42;59.58
21365;BME280;10841;42.832;23.196;2022-07-04T00:26:38;95588.78;;;22.51;59.66
21365;BME280;10841;42.832;23.196;2022-07-04T00:29:03;95585.38;;;22.57;60.10
21365;BME280;10841;42.832;23.196;2022-07-04T00:31:29;95571.84;;;22.47;59.76
21365;BME280;10841;42.832;23.196;2022-07-04T00:33:54;95582.94;;;22.49;60.18
21365;BME280;10841;42.832;23.196;2022-07-04T00:36:20;95578.13;;;22.40;60.82
21365;BME280;10841;42.832;23.196;2022-07-04T00:38:45;95572.19;;;22.18;61.36
21365;BME280;10841;42.832;23.196;2022-07-04T00:41:10;95580.47;;;22.15;61.70
21365;BME280;10841;42.832;23.196;2022-07-04T00:43:36;95593.19;;;22.18;62.05
21365;BME280;10841;42.832;23.196;2022-07-04T00:46:05;95582.47;;;22.07;62.48
21365;BME280;10841;42.832;23.196;2022-07-04T00:48:31;95585.69;;;21.90;62.91
21365;BME280;10841;42.832;23.196;2022-07-04T00:50:57;95594.94;;;21.92;62.79
21365;BME280;10841;42.832;23.196;2022-07-04T00:53:23;95596.56;;;21.93;62.61
21365;BME280;10841;42.832;23.196;2022-07-04T00:55:52;95592.72;;;21.83;63.02
21365;BME280;10841;42.832;23.196;2022-07-04T00:58:22;95604.22;;;21.95;63.50
21365;BME280;10841;42.832;23.196;2022-07-04T01:00:49;95586.25;;;21.85;63.16
21365;BME280;10841;42.832;23.196;2022-07-04T01:03:15;95596.38;;;21.95;63.24
21365;BME280;10841;42.832;23.196;2022-07-04T01:05:41;95599.16;;;21.87;63.26
21365;BME280;10841;42.832;23.196;2022-07-04T01:08:07;95593.91;;;21.87;63.66
21365;BME280;10841;42.832;23.196;2022-07-04T01:10:33;95598.94;;;21.82;63.74
21365;BME280;10841;42.832;23.196;2022-07-04T01:12:58;95588.44;;;21.75;63.86
21365;BME280;10841;42.832;23.196;2022-07-04T01:15:23;95598.50;;;21.72;64.19
21365;BME280;10841;42.832;23.196;2022-07-04T01:17:49;95605.72;;;21.63;64.26
21365;BME280;10841;42.832;23.196;2022-07-04T01:20:15;95604.09;;;21.56;64.63
21365;BME280;10841;42.832;23.196;2022-07-04T01:22:41;95592.50;;;21.37;65.52
21365;BME280;10841;42.832;23.196;2022-07-04T01:25:08;95595.44;;;21.21;65.26
21365;BME280;10841;42.832;23.196;2022-07-04T01:27:34;95598.06;;;21.21;65.37
21365;BME280;10841;42.832;23.196;2022-07-04T01:29:59;95589.56;;;21.13;65.24
21365;BME280;10841;42.832;23.196;2022-07-04T01:32:25;95598.03;;;21.15;65.55
21365;BME280;10841;42.832;23.196;2022-07-04T01:34:51;95606.94;;;21.20;65.31
21365;BME280;10841;42.832;23.196;2022-07-04T01:37:16;95604.28;;;21.14;65.13
21365;BME280;10841;42.832;23.196;2022-07-04T01:39:42;95602.66;;;21.13;64.75
21365;BME280;10841;42.832;23.196;2022-07-04T01:42:08;95597.78;;;21.10;65.00
21365;BME280;10841;42.832;23.196;2022-07-04T01:44:33;95599.44;;;21.11;64.69
21365;BME280;10841;42.832;23.196;2022-07-04T01:46:59;95599.19;;;21.06;64.87
21365;BME280;10841;42.832;23.196;2022-07-04T01:49:24;95598.19;;;21.07;64.99
21365;BME280;10841;42.832;23.196;2022-07-04T01:51:50;95595.38;;;21.08;65.12
21365;BME280;10841;42.832;23.196;2022-07-04T01:54:16;95591.72;;;21.03;64.60
21365;BME280;10841;42.832;23.196;2022-07-04T01:56:42;95594.38;;;21.09;64.81
21365;BME280;10841;42.832;23.196;2022-07-04T01:59:08;95584.41;;;20.92;65.21
21365;BME280;10841;42.832;23.196;2022-07-04T02:01:34;95591.22;;;20.86;65.03
21365;BME280;10841;42.832;23.196;2022-07-04T02:04:04;95605.91;;;20.87;65.75
21365;BME280;10841;42.832;23.196;2022-07-04T02:06:30;95599.03;;;20.59;66.24
21365;BME280;10841;42.832;23.196;2022-07-04T02:08:56;95610.63;;;20.50;66.86
21365;BME280;10841;42.832;23.196;2022-07-04T02:11:41;95613.13;;;20.58;66.54
21365;BME280;10841;42.832;23.196;2022-07-04T02:14:25;95601.28;;;20.41;66.43
21365;BME280;10841;42.832;23.196;2022-07-04T02:16:51;95609.63;;;20.51;66.45
21365;BME280;10841;42.832;23.196;2022-07-04T02:19:16;95606.28;;;20.36;66.21
21365;BME280;10841;42.832;23.196;2022-07-04T02:21:43;95601.78;;;20.30;65.82
21365;BME280;10841;42.832;23.196;2022-07-04T02:24:08;95598.75;;;20.26;65.93
21365;BME280;10841;42.832;23.196;2022-07-04T02:26:34;95610.47;;;20.30;65.93
21365;BME280;10841;42.832;23.196;2022-07-04T02:28:59;95603.19;;;20.26;65.94
21365;BME280;10841;42.832;23.196;2022-07-04T02:31:25;95596.78;;;20.28;67.10
21365;BME280;10841;42.832;23.196;2022-07-04T02:33:51;95604.97;;;20.25;67.14
21365;BME280;10841;42.832;23.196;2022-07-04T02:36:16;95606.41;;;20.28;67.35
21365;BME280;10841;42.832;23.196;2022-07-04T02:38:42;95608.53;;;20.18;67.39
21365;BME280;10841;42.832;23.196;2022-07-04T02:41:07;95600.69;;;20.18;67.41
21365;BME280;10841;42.832;23.196;2022-07-04T02:43:32;95612.09;;;20.10;66.78
21365;BME280;10841;42.832;23.196;2022-07-04T02:45:58;95616.75;;;20.15;66.78
21365;BME280;10841;42.832;23.196;2022-07-04T02:48:23;95619.47;;;20.07;66.61
21365;BME280;10841;42.832;23.196;2022-07-04T02:50:49;95610.84;;;20.06;65.75
21365;BME280;10841;42.832;23.196;2022-07-04T02:53:14;95622.38;;;20.12;66.17
21365;BME280;10841;42.832;23.196;2022-07-04T02:55:39;95635.16;;;20.07;66.42
21365;BME280;10841;42.832;23.196;2022-07-04T02:58:05;95626.69;;;20.05;66.41
21365;BME280;10841;42.832;23.196;2022-07-04T03:00:30;95625.66;;;19.85;66.46
21365;BME280;10841;42.832;23.196;2022-07-04T03:02:56;95631.75;;;19.92;66.73
21365;BME280;10841;42.832;23.196;2022-07-04T03:05:21;95634.09;;;19.87;66.49
21365;BME280;10841;42.832;23.196;2022-07-04T03:07:47;95638.34;;;19.88;66.36
21365;BME280;10841;42.832;23.196;2022-07-04T03:10:12;95631.16;;;19.90;67.05
21365;BME280;10841;42.832;23.196;2022-07-04T03:12:38;95618.84;;;19.69;67.96
21365;BME280;10841;42.832;23.196;2022-07-04T03:15:03;95626.59;;;19.63;68.22
21365;BME280;10841;42.832;23.196;2022-07-04T03:17:29;95638.13;;;19.68;68.06
21365;BME280;10841;42.832;23.196;2022-07-04T03:19:58;95635.56;;;19.75;67.94
21365;BME280;10841;42.832;23.196;2022-07-04T03:22:25;95634.34;;;19.71;67.40
21365;BME280;10841;42.832;23.196;2022-07-04T03:24:50;95633.16;;;19.73;67.28
21365;BME280;10841;42.832;23.196;2022-07-04T03:27:15;95641.00;;;19.73;66.99
21365;BME280;10841;42.832;23.196;2022-07-04T03:29:41;95629.50;;;19.68;67.05
21365;BME280;10841;42.832;23.196;2022-07-04T03:32:06;95644.78;;;19.71;66.85
21365;BME280;10841;42.832;23.196;2022-07-04T03:34:32;95643.41;;;19.75;66.78
21365;BME280;10841;42.832;23.196;2022-07-04T03:36:57;95630.09;;;19.70;66.85
21365;BME280;10841;42.832;23.196;2022-07-04T03:39:23;95640.34;;;19.71;66.27
21365;BME280;10841;42.832;23.196;2022-07-04T03:41:48;95633.44;;;19.64;67.52
21365;BME280;10841;42.832;23.196;2022-07-04T03:44:14;95641.78;;;19.74;67.08
21365;BME280;10841;42.832;23.196;2022-07-04T03:46:39;95632.81;;;19.62;67.15
21365;BME280;10841;42.832;23.196;2022-07-04T03:49:05;95627.59;;;19.62;67.16
21365;BME280;10841;42.832;23.196;2022-07-04T03:51:31;95639.94;;;19.68;67.58
21365;BME280;10841;42.832;23.196;2022-07-04T03:53:56;95636.31;;;19.69;67.72
21365;BME280;10841;42.832;23.196;2022-07-04T03:56:22;95638.81;;;19.77;67.27
21365;BME280;10841;42.832;23.196;2022-07-04T03:58:47;95635.13;;;19.71;67.21
21365;BME280;10841;42.832;23.196;2022-07-04T04:01:17;95629.56;;;19.74;67.57
21365;BME280;10841;42.832;23.196;2022-07-04T04:03:43;95653.03;;;19.89;67.94
21365;BME280;10841;42.832;23.196;2022-07-04T04:06:29;95642.59;;;19.89;67.77
21365;BME280;10841;42.832;23.196;2022-07-04T04:08:54;95641.59;;;19.90;68.72
21365;BME280;10841;42.832;23.196;2022-07-04T04:11:20;95642.00;;;19.93;68.73
21365;BME280;10841;42.832;23.196;2022-07-04T04:13:45;95641.69;;;19.82;68.72
21365;BME280;10841;42.832;23.196;2022-07-04T04:16:11;95637.72;;;19.86;68.52
21365;BME280;10841;42.832;23.196;2022-07-04T04:18:36;95649.84;;;19.93;68.74
21365;BME280;10841;42.832;23.196;2022-07-04T04:21:02;95645.06;;;19.97;68.43
21365;BME280;10841;42.832;23.196;2022-07-04T04:23:28;95644.72;;;20.00;68.35
21365;BME280;10841;42.832;23.196;2022-07-04T04:25:53;95640.59;;;20.05;68.14
21365;BME280;10841;42.832;23.196;2022-07-04T04:28:19;95632.44;;;20.15;67.73
21365;BME280;10841;42.832;23.196;2022-07-04T04:30:44;95633.31;;;20.22;68.33
21365;BME280;10841;42.832;23.196;2022-07-04T04:33:10;95634.78;;;20.31;68.34
21365;BME280;10841;42.832;23.196;2022-07-04T04:35:35;95645.13;;;20.39;68.29
21365;BME280;10841;42.832;23.196;2022-07-04T04:38:00;95638.91;;;20.40;68.17
21365;BME280;10841;42.832;23.196;2022-07-04T04:40:26;95650.47;;;20.52;68.43
21365;BME280;10841;42.832;23.196;2022-07-04T04:42:51;95647.75;;;20.60;68.84
21365;BME280;10841;42.832;23.196;2022-07-04T04:45:17;95644.66;;;20.77;68.11
21365;BME280;10841;42.832;23.196;2022-07-04T04:47:42;95649.63;;;20.93;68.07
21365;BME280;10841;42.832;23.196;2022-07-04T04:50:09;95650.50;;;21.00;68.23
21365;BME280;10841;42.832;23.196;2022-07-04T04:52:38;95644.09;;;21.03;68.30
21365;BME280;10841;42.832;23.196;2022-07-04T04:55:04;95658.53;;;20.99;68.88
21365;BME280;10841;42.832;23.196;2022-07-04T04:57:29;95635.03;;;20.78;68.98
21365;BME280;10841;42.832;23.196;2022-07-04T04:59:55;95645.53;;;20.84;69.52
21365;BME280;10841;42.832;23.196;2022-07-04T05:02:20;95648.59;;;20.88;69.16
21365;BME280;10841;42.832;23.196;2022-07-04T05:04:46;95649.75;;;21.06;69.02
21365;BME280;10841;42.832;23.196;2022-07-04T05:07:11;95653.59;;;21.10;67.06
21365;BME280;10841;42.832;23.196;2022-07-04T05:09:36;95640.28;;;21.05;66.38
21365;BME280;10841;42.832;23.196;2022-07-04T05:12:02;95646.31;;;21.06;66.57
21365;BME280;10841;42.832;23.196;2022-07-04T05:14:28;95638.03;;;21.02;66.55
21365;BME280;10841;42.832;23.196;2022-07-04T05:16:54;95639.69;;;21.10;66.27
21365;BME280;10841;42.832;23.196;2022-07-04T05:19:19;95650.63;;;21.20;66.65
21365;BME280;10841;42.832;23.196;2022-07-04T05:21:44;95651.09;;;21.30;67.18
21365;BME280;10841;42.832;23.196;2022-07-04T05:24:10;95649.72;;;21.34;65.19
21365;BME280;10841;42.832;23.196;2022-07-04T05:26:37;95643.09;;;21.38;65.59
21365;BME280;10841;42.832;23.196;2022-07-04T05:32:28;95638.00;;;21.64;63.95
21365;BME280;10841;42.832;23.196;2022-07-04T05:34:54;95652.97;;;21.76;63.12
21365;BME280;10841;42.832;23.196;2022-07-04T05:37:19;95639.69;;;21.84;63.12
21365;BME280;10841;42.832;23.196;2022-07-04T05:39:57;95628.84;;;21.94;61.88
21365;BME280;10841;42.832;23.196;2022-07-04T05:42:25;95642.22;;;22.12;60.35
21365;BME280;10841;42.832;23.196;2022-07-04T05:44:50;95637.78;;;22.18;58.39
21365;BME280;10841;42.832;23.196;2022-07-04T05:47:16;95645.22;;;22.21;59.00
21365;BME280;10841;42.832;23.196;2022-07-04T05:49:44;95632.94;;;22.28;57.97
21365;BME280;10841;42.832;23.196;2022-07-04T05:52:10;95626.09;;;22.34;57.45
21365;BME280;10841;42.832;23.196;2022-07-04T05:54:48;95616.41;;;22.34;57.32
21365;BME280;10841;42.832;23.196;2022-07-04T05:57:14;95616.47;;;22.41;57.42
21365;BME280;10841;42.832;23.196;2022-07-04T05:59:40;95619.28;;;22.52;57.69
21365;BME280;10841;42.832;23.196;2022-07-04T06:02:05;95629.41;;;22.55;58.39
21365;BME280;10841;42.832;23.196;2022-07-04T06:04:30;95630.19;;;22.69;58.79
21365;BME280;10841;42.832;23.196;2022-07-04T06:06:56;95633.03;;;22.74;59.27
21365;BME280;10841;42.832;23.196;2022-07-04T06:09:21;95634.03;;;22.92;58.93
21365;BME280;10841;42.832;23.196;2022-07-04T06:11:47;95635.22;;;23.03;58.79
21365;BME280;10841;42.832;23.196;2022-07-04T06:14:12;95629.38;;;23.14;58.39
21365;BME280;10841;42.832;23.196;2022-07-04T06:16:38;95621.69;;;23.25;56.82
21365;BME280;10841;42.832;23.196;2022-07-04T06:19:03;95620.03;;;23.37;57.42
21365;BME280;10841;42.832;23.196;2022-07-04T06:21:29;95625.66;;;23.54;55.97
21365;BME280;10841;42.832;23.196;2022-07-04T06:23:54;95618.94;;;23.58;55.22
21365;BME280;10841;42.832;23.196;2022-07-04T06:26:20;95628.63;;;23.70;55.88
21365;BME280;10841;42.832;23.196;2022-07-04T06:28:45;95629.19;;;23.85;53.80
21365;BME280;10841;42.832;23.196;2022-07-04T06:31:11;95632.59;;;23.92;55.01
21365;BME280;10841;42.832;23.196;2022-07-04T06:33:37;95620.88;;;23.95;55.16
21365;BME280;10841;42.832;23.196;2022-07-04T06:36:23;95625.50;;;23.93;55.59
21365;BME280;10841;42.832;23.196;2022-07-04T06:38:49;95623.63;;;24.06;54.89
21365;BME280;10841;42.832;23.196;2022-07-04T06:41:14;95620.16;;;24.12;53.98
21365;BME280;10841;42.832;23.196;2022-07-04T06:43:39;95624.16;;;24.15;53.58
21365;BME280;10841;42.832;23.196;2022-07-04T06:46:05;95604.09;;;24.20;53.70
21365;BME280;10841;42.832;23.196;2022-07-04T06:48:32;95619.84;;;24.33;53.64
21365;BME280;10841;42.832;23.196;2022-07-04T06:50:57;95619.56;;;24.41;54.04
21365;BME280;10841;42.832;23.196;2022-07-04T06:53:23;95609.56;;;24.56;54.07
21365;BME280;10841;42.832;23.196;2022-07-04T06:55:48;95612.69;;;24.71;52.09
21365;BME280;10841;42.832;23.196;2022-07-04T06:58:14;95615.25;;;24.77;51.53
21365;BME280;10841;42.832;23.196;2022-07-04T07:00:39;95616.03;;;24.84;51.53
21365;BME280;10841;42.832;23.196;2022-07-04T07:03:06;95607.81;;;24.92;51.86
21365;BME280;10841;42.832;23.196;2022-07-04T07:05:35;95608.53;;;25.06;49.95
21365;BME280;10841;42.832;23.196;2022-07-04T07:08:03;95614.09;;;25.16;50.37
21365;BME280;10841;42.832;23.196;2022-07-04T07:10:29;95612.44;;;25.21;49.49
21365;BME280;10841;42.832;23.196;2022-07-04T07:12:54;95610.78;;;25.27;48.41
21365;BME280;10841;42.832;23.196;2022-07-04T07:15:20;95602.72;;;25.22;48.88
21365;BME280;10841;42.832;23.196;2022-07-04T07:17:46;95601.69;;;25.23;50.17
21365;BME280;10841;42.832;23.196;2022-07-04T07:20:11;95600.38;;;25.32;48.78
21365;BME280;10841;42.832;23.196;2022-07-04T07:22:39;95599.13;;;25.34;48.91
21365;BME280;10841;42.832;23.196;2022-07-04T07:25:04;95600.09;;;25.40;50.20
21365;BME280;10841;42.832;23.196;2022-07-04T07:27:30;95595.97;;;25.62;52.28
21365;BME280;10841;42.832;23.196;2022-07-04T07:29:55;95593.91;;;25.82;50.94
21365;BME280;10841;42.832;23.196;2022-07-04T07:32:21;95599.34;;;25.87;49.76
21365;BME280;10841;42.832;23.196;2022-07-04T07:34:46;95605.94;;;25.96;50.72
21365;BME280;10841;42.832;23.196;2022-07-04T07:37:12;95593.66;;;26.01;50.73
21365;BME280;10841;42.832;23.196;2022-07-04T07:39:37;95585.09;;;26.06;49.54
21365;BME280;10841;42.832;23.196;2022-07-04T07:42:03;95586.19;;;26.16;49.93
21365;BME280;10841;42.832;23.196;2022-07-04T07:44:28;95583.69;;;26.33;48.33
21365;BME280;10841;42.832;23.196;2022-07-04T07:46:54;95580.13;;;26.39;48.18
21365;BME280;10841;42.832;23.196;2022-07-04T07:49:19;95585.06;;;26.35;47.78
21365;BME280;10841;42.832;23.196;2022-07-04T07:51:45;95591.16;;;26.36;47.98
21365;BME280;10841;42.832;23.196;2022-07-04T07:54:10;95577.97;;;26.36;46.91
21365;BME280;10841;42.832;23.196;2022-07-04T07:56:36;95581.13;;;26.26;47.69
21365;BME280;10841;42.832;23.196;2022-07-04T07:59:01;95576.66;;;26.27;48.44
21365;BME280;10841;42.832;23.196;2022-07-04T08:01:27;95572.22;;;26.39;48.88
21365;BME280;10841;42.832;23.196;2022-07-04T08:03:52;95571.47;;;26.50;49.29
21365;BME280;10841;42.832;23.196;2022-07-04T08:06:36;95574.25;;;26.66;49.19
21365;BME280;10841;42.832;23.196;2022-07-04T08:09:01;95567.94;;;26.79;49.14
21365;BME280;10841;42.832;23.196;2022-07-04T08:11:27;95565.97;;;26.86;48.27
21365;BME280;10841;42.832;23.196;2022-07-04T08:13:53;95568.28;;;26.94;48.45
21365;BME280;10841;42.832;23.196;2022-07-04T08:16:18;95566.44;;;27.06;49.92
21365;BME280;10841;42.832;23.196;2022-07-04T08:18:44;95564.38;;;27.08;45.95
21365;BME280;10841;42.832;23.196;2022-07-04T08:21:09;95566.69;;;27.16;46.62
21365;BME280;10841;42.832;23.196;2022-07-04T08:23:35;95563.31;;;27.43;48.42
21365;BME280;10841;42.832;23.196;2022-07-04T08:26:02;95560.63;;;27.54;47.06
21365;BME280;10841;42.832;23.196;2022-07-04T08:28:28;95557.91;;;27.49;46.69
21365;BME280;10841;42.832;23.196;2022-07-04T08:30:54;95558.09;;;27.59;46.51
21365;BME280;10841;42.832;23.196;2022-07-04T08:33:20;95546.97;;;27.57;47.38
21365;BME280;10841;42.832;23.196;2022-07-04T08:35:45;95538.53;;;27.60;48.03
21365;BME280;10841;42.832;23.196;2022-07-04T08:38:10;95541.13;;;27.83;47.93
21365;BME280;10841;42.832;23.196;2022-07-04T08:40:36;95551.53;;;28.01;46.83
21365;BME280;10841;42.832;23.196;2022-07-04T08:43:03;95557.97;;;28.05;48.75
21365;BME280;10841;42.832;23.196;2022-07-04T08:45:33;95536.88;;;28.10;46.93
21365;BME280;10841;42.832;23.196;2022-07-04T08:48:07;95550.03;;;28.33;47.19
21365;BME280;10841;42.832;23.196;2022-07-04T08:50:57;95544.13;;;28.31;46.32
21365;BME280;10841;42.832;23.196;2022-07-04T08:53:30;95545.75;;;28.32;45.91
21365;BME280;10841;42.832;23.196;2022-07-04T08:55:56;95537.81;;;28.32;46.10
21365;BME280;10841;42.832;23.196;2022-07-04T08:58:42;95547.94;;;28.35;46.31
21365;BME280;10841;42.832;23.196;2022-07-04T09:01:10;95546.97;;;28.41;45.65
21365;BME280;10841;42.832;23.196;2022-07-04T09:03:43;95557.78;;;28.23;44.85
21365;BME280;10841;42.832;23.196;2022-07-04T09:06:12;95549.81;;;28.23;46.23
21365;BME280;10841;42.832;23.196;2022-07-04T09:08:39;95539.19;;;28.51;46.80
21365;BME280;10841;42.832;23.196;2022-07-04T09:11:05;95545.38;;;28.73;45.22
21365;BME280;10841;42.832;23.196;2022-07-04T09:13:31;95546.91;;;28.69;46.52
21365;BME280;10841;42.832;23.196;2022-07-04T09:15:56;95524.97;;;28.57;45.18
21365;BME280;10841;42.832;23.196;2022-07-04T09:18:26;95542.66;;;28.68;45.74
21365;BME280;10841;42.832;23.196;2022-07-04T09:20:55;95541.66;;;28.58;45.21
21365;BME280;10841;42.832;23.196;2022-07-04T09:23:33;95536.69;;;28.45;45.60
21365;BME280;10841;42.832;23.196;2022-07-04T09:26:20;95523.38;;;28.56;48.12
21365;BME280;10841;42.832;23.196;2022-07-04T09:28:54;95515.47;;;28.78;46.65
21365;BME280;10841;42.832;23.196;2022-07-04T09:31:29;95523.19;;;29.12;45.20
21365;BME280;10841;42.832;23.196;2022-07-04T09:34:00;95535.03;;;29.26;44.63
21365;BME280;10841;42.832;23.196;2022-07-04T09:36:30;95522.56;;;29.27;45.49
21365;BME280;10841;42.832;23.196;2022-07-04T09:41:31;95516.59;;;29.36;45.60
21365;BME280;10841;42.832;23.196;2022-07-04T09:44:06;95509.38;;;29.53;45.48
21365;BME280;10841;42.832;23.196;2022-07-04T09:46:35;95497.78;;;29.59;44.86
21365;BME280;10841;42.832;23.196;2022-07-04T09:49:06;95475.06;;;29.68;44.38
21365;BME280;10841;42.832;23.196;2022-07-04T09:51:58;95502.53;;;30.05;45.74
21365;BME280;10841;42.832;23.196;2022-07-04T09:54:28;95496.31;;;30.21;45.16
21365;BME280;10841;42.832;23.196;2022-07-04T09:57:11;95495.91;;;30.34;43.49
21365;BME280;10841;42.832;23.196;2022-07-04T09:59:37;95496.47;;;30.41;42.10
21365;BME280;10841;42.832;23.196;2022-07-04T10:02:10;95499.69;;;30.43;41.85
21365;BME280;10841;42.832;23.196;2022-07-04T10:08:37;95505.03;;;30.79;42.61
21365;BME280;10841;42.832;23.196;2022-07-04T10:11:10;95504.81;;;30.86;42.24
21365;BME280;10841;42.832;23.196;2022-07-04T10:13:44;95507.53;;;30.91;42.18
21365;BME280;10841;42.832;23.196;2022-07-04T10:16:15;95512.88;;;30.96;41.68
21365;BME280;10841;42.832;23.196;2022-07-04T10:18:44;95485.38;;;30.80;41.97
21365;BME280;10841;42.832;23.196;2022-07-04T10:21:10;95503.28;;;30.95;42.11
21365;BME280;10841;42.832;23.196;2022-07-04T10:23:37;95490.84;;;31.05;42.33
21365;BME280;10841;42.832;23.196;2022-07-04T10:26:05;95488.44;;;31.09;41.87
21365;BME280;10841;42.832;23.196;2022-07-04T10:28:31;95497.88;;;31.26;42.20
21365;BME280;10841;42.832;23.196;2022-07-04T10:30:58;95505.66;;;31.33;41.33
21365;BME280;10841;42.832;23.196;2022-07-04T10:33:27;95486.94;;;31.18;41.44
21365;BME280;10841;42.832;23.196;2022-07-04T10:35:58;95485.34;;;31.17;41.74
21365;BME280;10841;42.832;23.196;2022-07-04T10:38:33;95478.03;;;31.44;43.09
21365;BME280;10841;42.832;23.196;2022-07-04T10:41:07;95486.13;;;31.69;42.47
21365;BME280;10841;42.832;23.196;2022-07-04T10:48:33;95454.97;;;31.89;41.18
21365;BME280;10841;42.832;23.196;2022-07-04T10:51:03;95478.75;;;32.16;40.60
21365;BME280;10841;42.832;23.196;2022-07-04T10:53:33;95474.00;;;32.23;40.96
21365;BME280;10841;42.832;23.196;2022-07-04T10:58:52;95471.84;;;32.50;40.39
21365;BME280;10841;42.832;23.196;2022-07-04T11:01:18;95455.31;;;32.58;39.80
21365;BME280;10841;42.832;23.196;2022-07-04T11:03:49;95469.72;;;32.72;39.37
21365;BME280;10841;42.832;23.196;2022-07-04T11:17:26;95453.72;;;32.47;39.29
21365;BME280;10841;42.832;23.196;2022-07-04T11:20:03;95463.56;;;32.56;40.17
21365;BME280;10841;42.832;23.196;2022-07-04T11:22:29;95467.03;;;32.72;40.09
21365;BME280;10841;42.832;23.196;2022-07-04T11:24:55;95449.91;;;32.88;40.05
21365;BME280;10841;42.832;23.196;2022-07-04T11:27:22;95453.34;;;33.03;39.78
21365;BME280;10841;42.832;23.196;2022-07-04T11:29:52;95451.50;;;33.03;40.63
21365;BME280;10841;42.832;23.196;2022-07-04T11:32:18;95456.78;;;33.18;40.28
21365;BME280;10841;42.832;23.196;2022-07-04T11:34:43;95450.09;;;33.21;40.10
21365;BME280;10841;42.832;23.196;2022-07-04T11:37:10;95446.09;;;33.18;39.82
21365;BME280;10841;42.832;23.196;2022-07-04T11:39:35;95440.75;;;33.18;39.92
21365;BME280;10841;42.832;23.196;2022-07-04T11:42:00;95445.59;;;33.21;39.11
21365;BME280;10841;42.832;23.196;2022-07-04T11:44:44;95423.16;;;33.17;38.30
21365;BME280;10841;42.832;23.196;2022-07-04T11:47:36;95436.50;;;33.27;38.94
21365;BME280;10841;42.832;23.196;2022-07-04T11:50:08;95436.75;;;33.31;38.08
21365;BME280;10841;42.832;23.196;2022-07-04T11:55:07;95415.75;;;33.00;39.48
21365;BME280;10841;42.832;23.196;2022-07-04T11:57:38;95418.16;;;32.91;40.43
21365;BME280;10841;42.832;23.196;2022-07-04T12:00:12;95423.25;;;32.83;41.52
21365;BME280;10841;42.832;23.196;2022-07-04T12:02:39;95418.97;;;32.92;41.12
21365;BME280;10841;42.832;23.196;2022-07-04T12:05:07;95409.06;;;33.07;40.26
21365;BME280;10841;42.832;23.196;2022-07-04T12:07:34;95408.75;;;33.23;40.56
21365;BME280;10841;42.832;23.196;2022-07-04T12:10:08;95397.41;;;33.41;40.49
21365;BME280;10841;42.832;23.196;2022-07-04T12:12:34;95399.06;;;33.32;41.05
21365;BME280;10841;42.832;23.196;2022-07-04T12:17:44;95403.81;;;33.45;41.03
21365;BME280;10841;42.832;23.196;2022-07-04T12:22:43;95390.38;;;33.60;41.13
21365;BME280;10841;42.832;23.196;2022-07-04T12:25:26;95388.06;;;33.87;40.50
21365;BME280;10841;42.832;23.196;2022-07-04T12:28:01;95375.94;;;34.05;39.54
21365;BME280;10841;42.832;23.196;2022-07-04T12:30:31;95382.44;;;34.27;39.01
21365;BME280;10841;42.832;23.196;2022-07-04T12:33:03;95379.66;;;34.37;39.78
21365;BME280;10841;42.832;23.196;2022-07-04T12:38:12;95384.34;;;34.50;39.66
21365;BME280;10841;42.832;23.196;2022-07-04T12:43:22;95388.59;;;34.56;39.52
21365;BME280;10841;42.832;23.196;2022-07-04T12:45:50;95387.50;;;34.57;39.86
21365;BME280;10841;42.832;23.196;2022-07-04T12:48:28;95390.22;;;34.52;39.63
21365;BME280;10841;42.832;23.196;2022-07-04T12:51:21;95383.78;;;34.53;38.97
21365;BME280;10841;42.832;23.196;2022-07-04T12:53:49;95377.34;;;34.54;37.95
21365;BME280;10841;42.832;23.196;2022-07-04T12:59:02;95378.09;;;34.60;39.65
21365;BME280;10841;42.832;23.196;2022-07-04T13:01:28;95375.72;;;34.58;40.03
21365;BME280;10841;42.832;23.196;2022-07-04T13:03:54;95374.22;;;34.47;39.12
21365;BME280;10841;42.832;23.196;2022-07-04T13:06:20;95352.34;;;34.40;39.39
21365;BME280;10841;42.832;23.196;2022-07-04T13:08:45;95359.78;;;34.43;39.38
21365;BME280;10841;42.832;23.196;2022-07-04T13:11:14;95362.16;;;34.50;39.37
21365;BME280;10841;42.832;23.196;2022-07-04T13:13:58;95357.31;;;34.52;39.90
21365;BME280;10841;42.832;23.196;2022-07-04T13:16:23;95359.66;;;34.58;40.38
21365;BME280;10841;42.832;23.196;2022-07-04T13:18:49;95366.03;;;34.62;39.50
21365;BME280;10841;42.832;23.196;2022-07-04T13:21:14;95362.75;;;34.70;39.63
21365;BME280;10841;42.832;23.196;2022-07-04T13:23:40;95364.28;;;34.76;39.81
21365;BME280;10841;42.832;23.196;2022-07-04T13:26:05;95348.19;;;34.81;38.95
21365;BME280;10841;42.832;23.196;2022-07-04T13:28:31;95351.84;;;34.90;40.33
21365;BME280;10841;42.832;23.196;2022-07-04T13:30:56;95339.00;;;34.87;39.34
21365;BME280;10841;42.832;23.196;2022-07-04T13:33:22;95346.47;;;34.90;39.25
21365;BME280;10841;42.832;23.196;2022-07-04T13:35:47;95335.03;;;34.85;38.63
21365;BME280;10841;42.832;23.196;2022-07-04T13:38:13;95334.19;;;34.89;38.83